Decoded Metar for KMLP (MULLAN PASS in ID, USA) (IATA:MLP) | Meteo·Mobile Aviation Weather
aviador You're here:

KMLP Decoded Metar

MULLAN PASS in ID, USA
Report Time2019-02-16 17:53:00
UTC Time2019-02-16 18:05:16
Flight Rules lifr LIFR
WindVRB at 03 kt
Visibility9999 m
Phenomena:N/A
Clouds:Broken 003 Hf
Overcast 007 Hf
Expected CloudBase > 800 ft AGL from Temp-Dew spread
Ceiling300 ft
Temp-5°C (ISA -8)
Dew Point-7°C (86% RH)
AAT-8.9°C
QNH1003 hPa
Density Alt5,459 ft
Elevation6,027 ft
Report Wrong Elevation
Raw Report
KMLP 161753Z AUTO VRB03KT 9SM BKN003 OVC007 M05/M07 A2961 RMK AO2
CIG 002V006 SLP072 60000 T10501072 11044 21067 51006=

Extra information for KMLP:More info

Metar Taf Metar & Taf Last 4 Metars F.Rules Stats Wind Profile Meteogram Temp Stats Airport Information Weather charts Add Link Nearby VenuesMetar ALERT Operation Metar Decoded Social comments

AIRNAV info for KMLP